Time;durP1;ratioP1;P1;durP2;ratioP2;P2;SDS_P1;SDS_P2;PMS_P1;PMS_P2;Temp;Humidity;BMP_temperature;BMP_pressure;BME280_temperature;BME280_humidity;BME280_pressure;Samples;Min_cycle;Max_cycle;Signal;HPM_P1;HPM_P2
2022/06/28 00:02:13;;;;;;;4.78;2.15;;;;;;;;;;7333556;19;153533;-16
2022/06/28 00:04:44;;;;;;;4.15;2.40;;;;;;;;;;7332967;19;161968;-16
2022/06/28 00:07:15;;;;;;;4.75;2.20;;;;;;;;;;7332830;19;162655;-16
2022/06/28 00:09:51;;;;;;;4.10;1.70;;;;;;;;;;7333354;19;154042;-16
2022/06/28 00:12:22;;;;;;;4.03;2.00;;;;;;;;;;7333346;19;153473;-17
2022/06/28 00:17:40;;;;;;;4.22;1.58;;;;;;;;;;7331483;19;162379;-16
2022/06/28 00:20:13;;;;;;;4.15;1.95;;;;;;;;;;7333329;19;154046;-16
2022/06/28 00:22:44;;;;;;;;;;;;;;;;;;7333534;19;155029;-15
2022/06/28 00:25:15;;;;;;;4.15;1.90;;;;;;;;;;7335296;19;162709;-16
2022/06/28 00:27:47;;;;;;;4.88;1.83;;;;;;;;;;7332154;19;162375;-15
2022/06/28 00:30:18;;;;;;;3.03;1.88;;;;;;;;;;7331658;19;154230;-16
2022/06/28 00:32:52;;;;;;;3.22;1.77;;;;;;;;;;7331173;19;153596;-16
2022/06/28 00:35:24;;;;;;;3.33;1.80;;;;;;;;;;7332312;19;161894;-16
2022/06/28 00:37:55;;;;;;;3.80;1.87;;;;;;;;;;7330103;19;162363;-16
2022/06/28 00:40:27;;;;;;;6.28;1.90;;;;;;;;;;7331370;19;154203;-16
2022/06/28 00:42:58;;;;;;;5.40;1.95;;;;;;;;;;7332386;19;153551;-16
2022/06/28 00:45:30;;;;;;;2.85;1.77;;;;;;;;;;7331934;19;161836;-16
2022/06/28 00:48:04;;;;;;;3.10;1.80;;;;;;;;;;7331694;19;162727;-16
2022/06/28 00:50:37;;;;;;;3.92;1.98;;;;;;;;;;7333374;19;154105;-16
2022/06/28 00:53:10;;;;;;;3.85;1.95;;;;;;;;;;7330707;19;153744;-16
2022/06/28 00:55:43;;;;;;;3.70;2.05;;;;;;;;;;7335170;19;162019;-16
2022/06/28 00:58:15;;;;;;;;;;;;;;;;;;7331117;19;162325;-16
2022/06/28 01:00:47;;;;;;;3.05;1.55;;;;;;;;;;7331965;19;154339;-15
2022/06/28 01:03:23;;;;;;;3.63;2.00;;;;;;;;;;7330438;19;153732;-15
2022/06/28 01:05:55;;;;;;;2.90;1.55;;;;;;;;;;7330116;19;161768;-16
2022/06/28 01:08:30;;;;;;;3.17;1.80;;;;;;;;;;7329972;19;162549;-16
2022/06/28 01:11:18;;;;;;;3.13;2.13;;;;;;;;;;7330478;19;154109;-17
2022/06/28 01:13:57;;;;;;;5.65;2.28;;;;;;;;;;7330007;19;153564;-16
2022/06/28 01:16:30;;;;;;;3.50;1.73;;;;;;;;;;7329837;19;162150;-16
2022/06/28 01:19:17;;;;;;;4.43;2.20;;;;;;;;;;7327927;19;162634;-16
2022/06/28 01:21:55;;;;;;;4.25;1.65;;;;;;;;;;7330990;19;154264;-16
2022/06/28 01:24:33;;;;;;;3.13;1.70;;;;;;;;;;7331178;19;154175;-15
2022/06/28 01:27:13;;;;;;;2.13;1.50;;;;;;;;;;7329473;19;162124;-16
2022/06/28 01:29:45;;;;;;;2.65;1.60;;;;;;;;;;7327607;19;162612;-16
2022/06/28 01:32:34;;;;;;;2.55;1.77;;;;;;;;;;7329790;19;154117;-16
2022/06/28 01:35:11;;;;;;;2.33;1.67;;;;;;;;;;7329737;19;153692;-16
2022/06/28 01:37:48;;;;;;;3.13;1.70;;;;;;;;;;7327963;19;134039;-16
2022/06/28 01:40:26;;;;;;;2.97;1.70;;;;;;;;;;7329261;19;162562;-16
2022/06/28 01:42:58;;;;;;;3.75;1.73;;;;;;;;;;7329377;19;154026;-16
2022/06/28 01:45:30;;;;;;;4.63;2.30;;;;;;;;;;7329469;19;153693;-16
2022/06/28 01:48:02;;;;;;;3.88;1.80;;;;;;;;;;7330118;19;161829;-17
2022/06/28 01:50:52;;;;;;;4.82;1.95;;;;;;;;;;7329961;19;162406;-16
2022/06/28 01:53:24;;;;;;;2.78;1.98;;;;;;;;;;7329360;19;154168;-17
2022/06/28 01:56:07;;;;;;;4.00;1.52;;;;;;;;;;7333295;19;153410;-16
2022/06/28 01:59:00;;;;;;;4.15;1.73;;;;;;;;;;7328727;19;162585;-16
2022/06/28 02:01:41;;;;;;;2.78;1.77;;;;;;;;;;7328590;19;162623;-16
2022/06/28 02:04:23;;;;;;;2.80;1.70;;;;;;;;;;7328955;19;154049;-16
2022/06/28 02:07:07;;;;;;;2.78;1.48;;;;;;;;;;7328666;19;153668;-16
2022/06/28 02:09:42;;;;;;;3.17;1.50;;;;;;;;;;7328329;19;161842;-15
2022/06/28 02:12:17;;;;;;;4.18;1.63;;;;;;;;;;7328235;19;162133;-16
2022/06/28 02:14:48;;;;;;;3.28;1.50;;;;;;;;;;7328760;19;153768;-16
2022/06/28 02:17:20;;;;;;;3.55;1.58;;;;;;;;;;7328716;19;153502;-15
2022/06/28 02:19:51;;;;;;;2.58;1.50;;;;;;;;;;7327376;19;161923;-16
2022/06/28 02:22:23;;;;;;;2.35;1.20;;;;;;;;;;7328053;19;162429;-17
2022/06/28 02:24:54;;;;;;;3.25;1.80;;;;;;;;;;7330692;19;154735;-17
2022/06/28 02:27:28;;;;;;;2.22;1.50;;;;;;;;;;7328411;19;153490;-15
2022/06/28 02:29:59;;;;;;;2.70;1.63;;;;;;;;;;7327615;19;161807;-16
2022/06/28 02:32:30;;;;;;;3.17;1.58;;;;;;;;;;7328581;19;162438;-16
2022/06/28 02:40:29;;;;;;;2.13;1.33;;;;;;;;;;7326107;19;161964;-15
2022/06/28 02:43:04;;;;;;;2.40;1.60;;;;;;;;;;7328198;19;162689;-16
2022/06/28 02:45:37;;;;;;;2.85;1.60;;;;;;;;;;7327826;19;154127;-16
2022/06/28 02:48:09;;;;;;;2.13;1.38;;;;;;;;;;7327473;19;153692;-16
2022/06/28 02:50:40;;;;;;;2.13;1.30;;;;;;;;;;7327434;19;161915;-16
2022/06/28 02:53:11;;;;;;;2.63;1.60;;;;;;;;;;7328305;19;162602;-15
2022/06/28 02:55:42;;;;;;;2.47;1.42;;;;;;;;;;7331133;19;154144;-16
2022/06/28 02:58:16;;;;;;;2.92;1.73;;;;;;;;;;7329812;19;153516;-16
2022/06/28 03:00:47;;;;;;;1.75;1.30;;;;;;;;;;7325641;19;161813;-16
2022/06/28 03:03:19;;;;;;;2.95;1.35;;;;;;;;;;7327963;19;162528;-16
2022/06/28 03:05:50;;;;;;;1.75;1.50;;;;;;;;;;7327103;19;154151;-17
2022/06/28 03:08:22;;;;;;;2.63;1.58;;;;;;;;;;7328261;19;154954;-16
2022/06/28 03:10:54;;;;;;;3.83;1.45;;;;;;;;;;7327727;19;161933;-17
2022/06/28 03:13:28;;;;;;;2.35;1.38;;;;;;;;;;7327506;19;162542;-16
2022/06/28 03:15:59;;;;;;;2.88;1.55;;;;;;;;;;7328053;19;154066;-17
2022/06/28 03:18:31;;;;;;;1.67;1.58;;;;;;;;;;7326801;19;153794;-16
2022/06/28 03:21:03;;;;;;;3.08;1.40;;;;;;;;;;7325309;19;161732;-16
2022/06/28 03:23:34;;;;;;;3.70;1.30;;;;;;;;;;7327511;19;162385;-15
2022/06/28 03:26:06;;;;;;;1.83;1.40;;;;;;;;;;7331026;19;154170;-16
2022/06/28 03:28:40;;;;;;;1.98;1.65;;;;;;;;;;7326538;19;153590;-16
2022/06/28 03:31:11;;;;;;;2.08;1.35;;;;;;;;;;7330052;19;161798;-16
2022/06/28 03:33:42;;;;;;;1.95;1.40;;;;;;;;;;7325767;19;162399;-16
2022/06/28 03:36:13;;;;;;;2.10;1.40;;;;;;;;;;7326416;19;154080;-17
2022/06/28 03:38:47;;;;;;;1.83;1.13;;;;;;;;;;7326173;19;153597;-17
2022/06/28 03:41:33;;;;;;;2.53;1.20;;;;;;;;;;7322929;19;162167;-15
2022/06/28 03:44:15;;;;;;;2.50;1.25;;;;;;;;;;7325808;19;162389;-16
2022/06/28 03:46:46;;;;;;;3.53;1.33;;;;;;;;;;7326325;19;154120;-16
2022/06/28 03:49:36;;;;;;;2.50;1.60;;;;;;;;;;7327047;19;154329;-16
2022/06/28 03:52:28;;;;;;;1.98;1.15;;;;;;;;;;7327175;19;161966;-16
2022/06/28 03:55:29;;;;;;;2.10;1.30;;;;;;;;;;7332967;19;162807;-16
2022/06/28 03:58:00;;;;;;;1.58;1.30;;;;;;;;;;7332894;19;154055;-15
2022/06/28 04:00:35;;;;;;;1.83;1.38;;;;;;;;;;7331613;19;153733;-16
2022/06/28 04:03:06;;;;;;;2.08;1.23;;;;;;;;;;7332231;19;161932;-16
2022/06/28 04:05:43;;;;;;;2.67;1.35;;;;;;;;;;7333420;19;162642;-16
2022/06/28 04:08:16;;;;;;;2.78;1.45;;;;;;;;;;7332414;19;154023;-16
2022/06/28 04:11:13;;;;;;;2.53;1.45;;;;;;;;;;7332240;19;153515;-16
2022/06/28 04:13:44;;;;;;;2.42;1.42;;;;;;;;;;7331904;19;161930;-16
2022/06/28 04:16:20;;;;;;;2.83;1.73;;;;;;;;;;7331932;19;162509;-16
2022/06/28 04:18:52;;;;;;;2.58;1.45;;;;;;;;;;7332381;19;154035;-17
2022/06/28 04:21:30;;;;;;;2.67;1.13;;;;;;;;;;7329890;19;153644;-16
2022/06/28 04:24:09;;;;;;;3.17;1.60;;;;;;;;;;7332204;19;161876;-16
2022/06/28 04:26:51;;;;;;;2.42;1.70;;;;;;;;;;7331850;19;162960;-15
2022/06/28 04:29:26;;;;;;;2.42;1.55;;;;;;;;;;7331881;19;154110;-16
2022/06/28 04:32:01;;;;;;;2.17;1.20;;;;;;;;;;7331925;19;153648;-17
2022/06/28 04:34:35;;;;;;;2.03;1.35;;;;;;;;;;7330417;19;161881;-16
2022/06/28 04:37:07;;;;;;;1.60;1.30;;;;;;;;;;7331366;19;162445;-16
2022/06/28 04:39:40;;;;;;;1.88;1.33;;;;;;;;;;7331451;19;154062;-16
2022/06/28 04:42:17;;;;;;;1.75;1.23;;;;;;;;;;7329037;19;153656;-16
2022/06/28 04:44:49;;;;;;;1.55;1.23;;;;;;;;;;7331227;19;161984;-17
2022/06/28 04:47:30;;;;;;;2.78;1.48;;;;;;;;;;7330982;19;162428;-15
2022/06/28 04:50:02;;;;;;;2.03;1.40;;;;;;;;;;7331631;19;154078;-17
2022/06/28 04:52:34;;;;;;;2.50;1.20;;;;;;;;;;7331223;19;153621;-17
2022/06/28 04:55:07;;;;;;;2.15;1.52;;;;;;;;;;7335518;19;161906;-17
2022/06/28 04:57:48;;;;;;;1.30;1.20;;;;;;;;;;7330828;19;162443;-18
2022/06/28 05:00:21;;;;;;;1.77;1.20;;;;;;;;;;7330886;19;153989;-17
2022/06/28 05:03:08;;;;;;;1.70;1.00;;;;;;;;;;7331097;19;153563;-18
2022/06/28 05:05:51;;;;;;;1.73;1.15;;;;;;;;;;7330554;19;161974;-17
2022/06/28 05:08:22;;;;;;;2.85;1.40;;;;;;;;;;7330664;19;162554;-17
2022/06/28 05:10:59;;;;;;;2.53;1.42;;;;;;;;;;7330670;19;154212;-17
2022/06/28 05:13:40;;;;;;;2.05;1.60;;;;;;;;;;7330590;19;153664;-17
2022/06/28 05:16:14;;;;;;;1.77;1.38;;;;;;;;;;7330095;19;162001;-18
2022/06/28 05:18:49;;;;;;;;;;;;;;;;;;7330555;19;162707;-16
2022/06/28 05:21:26;;;;;;;2.03;1.20;;;;;;;;;;7329105;19;154159;-17
2022/06/28 05:23:57;;;;;;;2.20;1.30;;;;;;;;;;7330218;19;153956;-17
2022/06/28 05:26:42;;;;;;;3.50;1.73;;;;;;;;;;7330064;19;161681;-17
2022/06/28 05:29:17;;;;;;;3.42;1.40;;;;;;;;;;7333764;19;162563;-16
2022/06/28 05:31:48;;;;;;;3.43;1.53;;;;;;;;;;7330297;19;154119;-16
2022/06/28 05:34:22;;;;;;;6.28;2.20;;;;;;;;;;7328938;19;153541;-17
2022/06/28 05:36:54;;;;;;;6.47;2.28;;;;;;;;;;7330653;19;162081;-16
2022/06/28 05:39:25;;;;;;;8.60;2.53;;;;;;;;;;7330554;19;162183;-17
2022/06/28 05:41:56;;;;;;;8.35;2.78;;;;;;;;;;7329655;19;154149;-16
2022/06/28 05:44:27;;;;;;;12.05;3.25;;;;;;;;;;7329551;19;154566;-17
2022/06/28 05:46:59;;;;;;;11.00;3.03;;;;;;;;;;7329450;19;162130;-17
2022/06/28 05:49:32;;;;;;;9.70;2.90;;;;;;;;;;7329365;19;162515;-17
2022/06/28 05:52:04;;;;;;;9.45;2.40;;;;;;;;;;7330876;19;154201;-16
2022/06/28 05:54:35;;;;;;;15.23;3.28;;;;;;;;;;7328415;19;153822;-17
2022/06/28 05:57:07;;;;;;;14.63;3.42;;;;;;;;;;7329263;19;162036;-17
2022/06/28 05:59:38;;;;;;;7.67;3.00;;;;;;;;;;7329267;19;162361;-17
2022/06/28 06:02:10;;;;;;;10.35;3.53;;;;;;;;;;7327801;19;154056;-16
2022/06/28 06:04:45;;;;;;;17.85;3.53;;;;;;;;;;7329425;19;153872;-16
2022/06/28 06:07:24;;;;;;;12.18;3.08;;;;;;;;;;7328927;19;162011;-16
2022/06/28 06:09:55;;;;;;;12.23;2.97;;;;;;;;;;7328984;19;162414;-16
2022/06/28 06:12:26;;;;;;;15.27;2.70;;;;;;;;;;7330419;19;154123;-16
2022/06/28 06:14:58;;;;;;;10.68;3.17;;;;;;;;;;7329437;19;153717;-17
2022/06/28 06:17:29;;;;;;;11.75;2.72;;;;;;;;;;7328571;19;161836;-21
2022/06/28 06:20:04;;;;;;;11.43;3.07;;;;;;;;;;7328626;19;162470;-16
2022/06/28 06:22:35;;;;;;;11.70;3.13;;;;;;;;;;7327121;19;153798;-17
2022/06/28 06:25:16;;;;;;;6.63;2.60;;;;;;;;;;7331564;19;153922;-17
2022/06/28 06:27:48;;;;;;;8.32;2.60;;;;;;;;;;7328520;19;162317;-16
2022/06/28 06:30:19;;;;;;;7.13;2.92;;;;;;;;;;7329404;19;162397;-16
2022/06/28 06:33:06;;;;;;;9.23;2.92;;;;;;;;;;7327693;19;154393;-17
2022/06/28 06:36:00;;;;;;;7.78;2.35;;;;;;;;;;7329572;19;153659;-16
2022/06/28 06:38:31;;;;;;;8.90;3.58;;;;;;;;;;7328205;19;161873;-17
2022/06/28 06:41:02;;;;;;;7.85;2.88;;;;;;;;;;7328498;19;162480;-17
2022/06/28 06:43:34;;;;;;;7.18;2.30;;;;;;;;;;7325894;19;154087;-17
2022/06/28 06:46:11;;;;;;;7.43;2.60;;;;;;;;;;7328513;19;153595;-17
2022/06/28 06:48:43;;;;;;;5.50;2.83;;;;;;;;;;7329211;19;162060;-22
2022/06/28 06:51:16;;;;;;;4.78;2.20;;;;;;;;;;7328187;19;162541;-17
2022/06/28 06:53:48;;;;;;;7.63;2.53;;;;;;;;;;7329550;19;154433;-17
2022/06/28 06:56:19;;;;;;;7.10;2.70;;;;;;;;;;7328052;19;153568;-17
2022/06/28 06:58:50;;;;;;;7.97;2.47;;;;;;;;;;7327659;19;161863;-17
2022/06/28 07:01:22;;;;;;;6.03;2.60;;;;;;;;;;7330475;19;162608;-17
2022/06/28 07:04:15;;;;;;;8.38;2.83;;;;;;;;;;7327759;19;153990;-16
2022/06/28 07:06:49;;;;;;;9.20;3.13;;;;;;;;;;7327142;19;153505;-17
2022/06/28 07:09:23;;;;;;;7.03;2.60;;;;;;;;;;7327002;19;162291;-17
2022/06/28 07:11:54;;;;;;;7.55;2.35;;;;;;;;;;7327053;19;162424;-17
2022/06/28 07:14:26;;;;;;;4.70;2.30;;;;;;;;;;7327538;19;154034;-16
2022/06/28 07:16:59;;;;;;;8.05;3.33;;;;;;;;;;7327318;19;153580;-16
2022/06/28 07:19:31;;;;;;;8.20;2.88;;;;;;;;;;7327022;19;162115;-18
2022/06/28 07:22:05;;;;;;;9.48;2.30;;;;;;;;;;7326375;19;162417;-17
2022/06/28 07:24:37;;;;;;;12.40;2.80;;;;;;;;;;7328547;19;154008;-18
2022/06/28 07:27:08;;;;;;;8.95;2.65;;;;;;;;;;7327494;19;153264;-17
2022/06/28 07:29:40;;;;;;;9.35;3.00;;;;;;;;;;7334382;19;161911;-15
2022/06/28 07:32:11;;;;;;;6.80;3.03;;;;;;;;;;7337225;19;162766;-15
2022/06/28 07:34:42;;;;;;;9.82;2.78;;;;;;;;;;7332523;19;154341;-18
2022/06/28 07:37:16;;;;;;;10.82;2.65;;;;;;;;;;7332998;19;153676;-16
2022/06/28 07:39:50;;;;;;;6.90;2.67;;;;;;;;;;7332667;19;161946;-18
2022/06/28 07:42:40;;;;;;;5.50;2.50;;;;;;;;;;7333480;19;162501;-18
2022/06/28 07:45:39;;;;;;;7.50;2.70;;;;;;;;;;7333571;19;154157;-16
2022/06/28 07:48:18;;;;;;;5.50;2.30;;;;;;;;;;7332927;19;153729;-16
2022/06/28 07:53:38;;;;;;;6.43;2.65;;;;;;;;;;7332551;19;162444;-16
2022/06/28 07:56:27;;;;;;;4.70;2.25;;;;;;;;;;7334505;19;154057;-16
2022/06/28 07:58:59;;;;;;;4.20;2.30;;;;;;;;;;7332814;19;153772;-17
2022/06/28 08:01:34;;;;;;;3.97;2.38;;;;;;;;;;7332201;19;161786;-16
2022/06/28 08:04:11;;;;;;;5.43;2.40;;;;;;;;;;7330292;19;162459;-16
2022/06/28 08:06:43;;;;;;;9.38;2.50;;;;;;;;;;7332938;19;153897;-18
2022/06/28 08:09:17;;;;;;;4.47;2.15;;;;;;;;;;7332611;19;153797;-16
2022/06/28 08:11:51;;;;;;;8.05;1.92;;;;;;;;;;7332487;19;162044;-16
2022/06/28 08:14:23;;;;;;;4.38;2.70;;;;;;;;;;7332277;19;162770;-16
2022/06/28 08:16:55;;;;;;;7.13;2.78;;;;;;;;;;7332804;19;154036;-16
2022/06/28 08:19:26;;;;;;;7.55;2.53;;;;;;;;;;7332594;19;153631;-16
2022/06/28 08:21:58;;;;;;;5.65;1.90;;;;;;;;;;7332404;19;162081;-16
2022/06/28 08:24:31;;;;;;;2.72;1.95;;;;;;;;;;7331376;19;162454;-16
2022/06/28 08:27:03;;;;;;;7.40;2.13;;;;;;;;;;7332620;19;154175;-16
2022/06/28 08:29:35;;;;;;;5.57;2.08;;;;;;;;;;7332488;19;153573;-15
2022/06/28 08:32:07;;;;;;;4.43;2.22;;;;;;;;;;7332120;19;162094;-16
2022/06/28 08:34:39;;;;;;;4.32;2.15;;;;;;;;;;7329546;19;162456;-16
2022/06/28 08:37:10;;;;;;;3.55;2.08;;;;;;;;;;7333344;19;154125;-15
2022/06/28 08:39:44;;;;;;;6.60;2.35;;;;;;;;;;7331997;19;153510;-16
2022/06/28 08:42:18;;;;;;;6.03;2.67;;;;;;;;;;7332858;19;161893;-16
2022/06/28 08:44:50;;;;;;;4.63;2.20;;;;;;;;;;7330550;19;162525;-16
2022/06/28 08:47:24;;;;;;;2.58;2.13;;;;;;;;;;7333067;19;154292;-16
2022/06/28 08:49:59;;;;;;;6.45;2.33;;;;;;;;;;7332958;19;153550;-17
2022/06/28 08:52:31;;;;;;;4.40;2.40;;;;;;;;;;7332539;19;162059;-16
2022/06/28 08:55:06;;;;;;;5.40;2.42;;;;;;;;;;7333440;19;162587;-16
2022/06/28 08:57:42;;;;;;;4.95;2.45;;;;;;;;;;7333047;19;154166;-16
2022/06/28 09:00:17;;;;;;;5.57;2.08;;;;;;;;;;7332678;19;153547;-17
2022/06/28 09:02:54;;;;;;;4.18;2.35;;;;;;;;;;7334766;19;162239;-16
2022/06/28 09:05:28;;;;;;;4.40;2.05;;;;;;;;;;7332191;19;162547;-16
2022/06/28 09:08:00;;;;;;;5.05;2.17;;;;;;;;;;7332069;19;154071;-17
2022/06/28 09:10:35;;;;;;;4.70;2.28;;;;;;;;;;7332198;19;153505;-16
2022/06/28 09:13:19;;;;;;;5.43;2.65;;;;;;;;;;7331760;19;162126;-16
2022/06/28 09:15:56;;;;;;;6.00;2.45;;;;;;;;;;7331945;19;162518;-16
2022/06/28 09:18:46;;;;;;;4.85;2.50;;;;;;;;;;7332071;19;153925;-15
2022/06/28 09:21:22;;;;;;;5.10;3.03;;;;;;;;;;7331863;19;153528;-17
2022/06/28 09:24:01;;;;;;;7.45;3.08;;;;;;;;;;7330343;19;162072;-16
2022/06/28 09:26:36;;;;;;;7.70;3.13;;;;;;;;;;7331524;19;162000;-17
2022/06/28 09:29:15;;;;;;;8.30;3.20;;;;;;;;;;7331828;19;154309;-17
2022/06/28 09:31:48;;;;;;;6.35;2.45;;;;;;;;;;7331622;19;153642;-17
2022/06/28 09:34:20;;;;;;;4.75;2.55;;;;;;;;;;7328804;19;162005;-16
2022/06/28 09:36:55;;;;;;;3.78;2.00;;;;;;;;;;7331141;19;162361;-16
2022/06/28 09:39:31;;;;;;;4.68;2.70;;;;;;;;;;7334324;19;154039;-16
2022/06/28 09:42:09;;;;;;;6.50;3.08;;;;;;;;;;7331339;19;153914;-17
2022/06/28 09:44:55;;;;;;;7.95;2.75;;;;;;;;;;7329643;19;161811;-16
2022/06/28 09:47:27;;;;;;;8.18;3.05;;;;;;;;;;7330854;19;162398;-16
2022/06/28 09:50:23;;;;;;;6.22;2.88;;;;;;;;;;7328437;19;154077;-17
2022/06/28 09:52:57;;;;;;;5.70;2.47;;;;;;;;;;7329874;19;153792;-17
2022/06/28 09:55:31;;;;;;;9.18;3.00;;;;;;;;;;7333580;19;161747;-17
2022/06/28 09:58:05;;;;;;;6.05;2.63;;;;;;;;;;7330400;19;162394;-17
2022/06/28 10:00:39;;;;;;;8.85;2.92;;;;;;;;;;7330931;19;154097;-17
2022/06/28 10:03:11;;;;;;;4.28;2.42;;;;;;;;;;7330642;19;153530;-17
2022/06/28 10:05:42;;;;;;;5.82;2.60;;;;;;;;;;7331580;19;161843;-17
2022/06/28 10:08:14;;;;;;;6.63;2.03;;;;;;;;;;7330248;19;162540;-16
2022/06/28 10:10:48;;;;;;;6.60;2.50;;;;;;;;;;7330678;19;154135;-17
2022/06/28 10:16:23;;;;;;;8.52;2.42;;;;;;;;;;7327841;19;162059;-17
2022/06/28 10:18:54;;;;;;;7.47;2.30;;;;;;;;;;7329760;19;162549;-17
2022/06/28 10:21:47;;;;;;;5.95;2.72;;;;;;;;;;7329106;19;154126;-15
2022/06/28 10:24:18;;;;;;;8.18;3.15;;;;;;;;;;7330360;19;153646;-20
2022/06/28 10:27:16;;;;;;;5.65;2.53;;;;;;;;;;7329599;19;161938;-17
2022/06/28 10:30:17;;;;;;;5.15;2.28;;;;;;;;;;7330635;19;162604;-17
2022/06/28 10:32:52;;;;;;;10.95;2.58;;;;;;;;;;7332772;19;155256;-16
2022/06/28 10:35:55;;;;;;;9.57;2.67;;;;;;;;;;7329766;19;153578;-17
2022/06/28 10:38:26;;;;;;;10.97;3.20;;;;;;;;;;7328875;19;161888;-15
2022/06/28 10:40:57;;;;;;;5.18;2.25;;;;;;;;;;7329081;19;162346;-16
2022/06/28 10:43:50;;;;;;;5.90;2.10;;;;;;;;;;7329547;19;154014;-16
2022/06/28 10:46:28;;;;;;;5.93;2.53;;;;;;;;;;7326654;19;153455;-16
2022/06/28 10:49:13;;;;;;;8.35;3.03;;;;;;;;;;7328987;19;162123;-16
2022/06/28 10:52:13;;;;;;;6.40;2.10;;;;;;;;;;7328790;19;162385;-17
2022/06/28 10:55:20;;;;;;;5.40;2.47;;;;;;;;;;7330546;19;154807;-16
2022/06/28 10:57:51;;;;;;;14.98;2.78;;;;;;;;;;7329070;19;153584;-17
2022/06/28 11:00:32;;;;;;;8.07;2.85;;;;;;;;;;7328717;19;161883;-17
2022/06/28 11:03:05;;;;;;;4.82;1.98;;;;;;;;;;7332009;19;162459;-17
2022/06/28 11:05:55;;;;;;;5.45;2.08;;;;;;;;;;7334172;19;153859;-16
2022/06/28 11:08:51;;;;;;;7.43;2.70;;;;;;;;;;7339685;19;153958;-17
2022/06/28 11:11:23;;;;;;;7.70;2.45;;;;;;;;;;7334805;19;161863;-17
2022/06/28 11:14:23;;;;;;;8.98;2.28;;;;;;;;;;7335223;19;162564;-17
2022/06/28 11:16:55;;;;;;;6.45;2.22;;;;;;;;;;7335495;19;154031;-17
2022/06/28 11:19:26;;;;;;;7.43;2.00;;;;;;;;;;7335107;19;153601;-16
2022/06/28 11:22:00;;;;;;;4.20;2.20;;;;;;;;;;7333285;19;161891;-17
2022/06/28 11:24:31;;;;;;;9.27;2.10;;;;;;;;;;7335635;19;162579;-17
2022/06/28 11:29:49;;;;;;;6.85;2.30;;;;;;;;;;7335040;19;153622;-16
2022/06/28 11:32:23;;;;;;;8.55;2.30;;;;;;;;;;7334499;19;161871;-16
2022/06/28 11:34:59;;;;;;;6.35;2.22;;;;;;;;;;7334387;19;162397;-16
2022/06/28 11:37:35;;;;;;;7.75;1.92;;;;;;;;;;7334680;19;154038;-16
2022/06/28 11:40:07;;;;;;;7.13;2.30;;;;;;;;;;7333141;19;153637;-17
2022/06/28 11:42:38;;;;;;;7.10;2.33;;;;;;;;;;7332923;19;162048;-17
2022/06/28 11:45:12;;;;;;;6.45;2.28;;;;;;;;;;7336551;19;162457;-16
2022/06/28 11:47:48;;;;;;;11.68;2.13;;;;;;;;;;7334325;19;154290;-18
2022/06/28 11:50:21;;;;;;;6.55;2.33;;;;;;;;;;7334316;19;153494;-17
2022/06/28 11:52:55;;;;;;;;;;;;;;;;;;7334549;19;161965;-17
2022/06/28 11:55:40;;;;;;;4.75;1.85;;;;;;;;;;7337093;19;162674;-18
2022/06/28 11:58:20;;;;;;;7.25;2.38;;;;;;;;;;7334346;19;154481;-17
2022/06/28 12:01:06;;;;;;;5.22;1.98;;;;;;;;;;7334281;19;153575;-17
2022/06/28 12:03:56;;;;;;;8.27;2.17;;;;;;;;;;7333504;19;162146;-17
2022/06/28 12:06:30;;;;;;;6.80;2.55;;;;;;;;;;7332215;19;162487;-17
2022/06/28 12:09:06;;;;;;;4.35;1.85;;;;;;;;;;7334244;19;154175;-16
2022/06/28 12:11:40;;;;;;;13.20;2.13;;;;;;;;;;7334368;19;153627;-17
2022/06/28 12:14:14;;;;;;;6.55;2.60;;;;;;;;;;7332715;19;162129;-17
2022/06/28 12:16:48;;;;;;;3.95;1.73;;;;;;;;;;7333327;19;162426;-17
2022/06/28 12:19:22;;;;;;;3.92;1.90;;;;;;;;;;7333488;19;153943;-16
2022/06/28 12:22:01;;;;;;;3.35;1.75;;;;;;;;;;7333137;19;153532;-17
2022/06/28 12:24:46;;;;;;;4.82;1.95;;;;;;;;;;7334162;19;161878;-17
2022/06/28 12:27:27;;;;;;;4.97;2.08;;;;;;;;;;7330611;19;162431;-15
2022/06/28 12:30:00;;;;;;;8.20;2.17;;;;;;;;;;7331880;19;154326;-18
2022/06/28 12:32:31;;;;;;;;;;;;;;;;;;7331711;19;153373;-18
2022/06/28 12:35:19;;;;;;;2.60;1.75;;;;;;;;;;7332872;19;162060;-17
2022/06/28 12:37:50;;;;;;;8.93;2.40;;;;;;;;;;7332384;19;162377;-18
2022/06/28 12:40:25;;;;;;;9.23;2.10;;;;;;;;;;7332797;19;154176;-17
2022/06/28 12:42:56;;;;;;;5.20;2.22;;;;;;;;;;7332614;19;153479;-17
2022/06/28 12:45:27;;;;;;;3.65;1.92;;;;;;;;;;7332060;19;161867;-18
2022/06/28 12:47:59;;;;;;;3.05;1.92;;;;;;;;;;7330943;19;162747;-18
2022/06/28 12:50:30;;;;;;;6.30;1.73;;;;;;;;;;7332568;19;154019;-18
2022/06/28 12:53:01;;;;;;;4.57;1.83;;;;;;;;;;7330913;19;153779;-18
2022/06/28 12:55:35;;;;;;;4.53;1.58;;;;;;;;;;7335192;19;161834;-18
2022/06/28 12:58:06;;;;;;;6.32;1.70;;;;;;;;;;7332037;19;162558;-18
2022/06/28 13:00:38;;;;;;;5.05;1.98;;;;;;;;;;7331039;19;154291;-17
2022/06/28 13:03:09;;;;;;;12.32;1.85;;;;;;;;;;7332590;19;153773;-17
2022/06/28 13:05:40;;;;;;;5.78;1.98;;;;;;;;;;7331971;19;161717;-17
2022/06/28 13:08:11;;;;;;;6.60;1.92;;;;;;;;;;7331524;19;162294;-18
2022/06/28 13:10:45;;;;;;;4.78;1.75;;;;;;;;;;7332170;19;154021;-18
2022/06/28 13:13:20;;;;;;;3.53;1.80;;;;;;;;;;7331660;19;153621;-18
2022/06/28 13:15:52;;;;;;;3.83;1.60;;;;;;;;;;7331619;19;161942;-17
2022/06/28 13:18:23;;;;;;;4.50;1.73;;;;;;;;;;7331042;19;162531;-17
2022/06/28 13:20:54;;;;;;;3.55;1.77;;;;;;;;;;7331804;19;154080;-17
2022/06/28 13:23:26;;;;;;;3.25;1.58;;;;;;;;;;7330721;19;153549;-17
2022/06/28 13:26:00;;;;;;;8.70;2.15;;;;;;;;;;7333136;19;161803;-18
2022/06/28 13:28:31;;;;;;;4.53;1.63;;;;;;;;;;7331626;19;162377;-18
2022/06/28 13:31:03;;;;;;;5.88;1.95;;;;;;;;;;7331900;19;154173;-18
2022/06/28 13:33:34;;;;;;;4.55;1.95;;;;;;;;;;7330134;19;153546;-23
2022/06/28 13:36:07;;;;;;;16.73;5.40;;;;;;;;;;7331066;19;161879;-17
2022/06/28 13:38:39;;;;;;;12.57;3.70;;;;;;;;;;7330962;19;162708;-17
2022/06/28 13:41:13;;;;;;;17.87;6.33;;;;;;;;;;7331436;19;154008;-18
2022/06/28 13:43:45;;;;;;;18.02;6.95;;;;;;;;;;7331182;19;154269;-18
2022/06/28 13:46:16;;;;;;;27.47;7.87;;;;;;;;;;7330699;19;161843;-29
2022/06/28 13:48:47;;;;;;;21.77;7.22;;;;;;;;;;7330708;19;163028;-18
2022/06/28 13:51:19;;;;;;;29.85;8.90;;;;;;;;;;7331826;19;154032;-18
2022/06/28 13:53:50;;;;;;;24.83;8.10;;;;;;;;;;7330818;19;153696;-18
2022/06/28 13:56:24;;;;;;;32.08;8.43;;;;;;;;;;7330251;19;161968;-18
2022/06/28 13:58:56;;;;;;;25.80;8.63;;;;;;;;;;7330248;19;162346;-18
2022/06/28 14:01:27;;;;;;;33.03;9.57;;;;;;;;;;7330985;19;153944;-16
2022/06/28 14:03:58;;;;;;;24.02;7.72;;;;;;;;;;7330790;19;153602;-16
2022/06/28 14:06:29;;;;;;;20.17;8.50;;;;;;;;;;7329906;19;162487;-16
2022/06/28 14:09:01;;;;;;;22.95;8.00;;;;;;;;;;7329185;19;162901;-17
2022/06/28 14:11:35;;;;;;;22.40;7.60;;;;;;;;;;7330655;19;154171;-16
2022/06/28 14:14:06;;;;;;;22.75;7.35;;;;;;;;;;7330579;19;153683;-16
2022/06/28 14:16:37;;;;;;;24.27;7.68;;;;;;;;;;7330042;19;161751;-15
2022/06/28 14:19:08;;;;;;;26.70;7.55;;;;;;;;;;7330008;19;162875;-16
2022/06/28 14:21:40;;;;;;;21.42;7.32;;;;;;;;;;7330293;19;154313;-16
2022/06/28 14:24:11;;;;;;;22.88;7.57;;;;;;;;;;7329647;19;153652;-17
2022/06/28 14:26:45;;;;;;;24.17;7.22;;;;;;;;;;7329668;19;161822;-16
2022/06/28 14:29:16;;;;;;;19.88;7.05;;;;;;;;;;7329742;19;162826;-16
2022/06/28 14:31:48;;;;;;;20.63;7.65;;;;;;;;;;7330253;19;154022;-18
2022/06/28 14:34:19;;;;;;;19.60;7.50;;;;;;;;;;7327576;19;153631;-18
2022/06/28 14:36:53;;;;;;;26.17;7.70;;;;;;;;;;7328832;19;162031;-17
2022/06/28 14:39:24;;;;;;;17.90;7.40;;;;;;;;;;7328164;19;162340;-17
2022/06/28 14:41:58;;;;;;;25.17;7.03;;;;;;;;;;7329470;19;154057;-17
2022/06/28 14:44:30;;;;;;;16.58;6.47;;;;;;;;;;7329390;19;153631;-17
2022/06/28 14:47:01;;;;;;;20.00;6.88;;;;;;;;;;7328652;19;161694;-17
2022/06/28 14:49:33;;;;;;;20.30;6.75;;;;;;;;;;7328761;19;162638;-17
2022/06/28 14:52:04;;;;;;;14.50;6.45;;;;;;;;;;7329202;19;154016;-17
2022/06/28 14:54:35;;;;;;;20.70;6.88;;;;;;;;;;7330483;19;154163;-16
2022/06/28 14:57:09;;;;;;;18.05;6.75;;;;;;;;;;7328721;19;161536;-17
2022/06/28 14:59:41;;;;;;;16.27;6.00;;;;;;;;;;7328543;19;162498;-17
2022/06/28 15:02:12;;;;;;;17.92;6.32;;;;;;;;;;7329081;19;154235;-17
2022/06/28 15:04:43;;;;;;;20.45;7.38;;;;;;;;;;7332937;19;153541;-17
2022/06/28 15:07:14;;;;;;;15.25;6.10;;;;;;;;;;7328240;19;161873;-17
2022/06/28 15:09:46;;;;;;;17.33;6.55;;;;;;;;;;7328221;19;162433;-17
2022/06/28 15:12:19;;;;;;;19.65;5.63;;;;;;;;;;7328579;19;154406;-17
2022/06/28 15:14:54;;;;;;;17.50;5.28;;;;;;;;;;7328584;19;153559;-17
2022/06/28 15:17:25;;;;;;;15.52;6.35;;;;;;;;;;7327834;19;161873;-17
2022/06/28 15:19:56;;;;;;;19.13;5.68;;;;;;;;;;7328003;19;162388;-17
2022/06/28 15:31:03;;;;;;;16.67;6.60;;;;;;;;;;7327516;19;162755;-17
2022/06/28 15:33:34;;;;;;;16.00;5.38;;;;;;;;;;7326342;19;154067;-17
2022/06/28 15:36:08;;;;;;;17.75;5.53;;;;;;;;;;7327314;19;153674;-16
2022/06/28 15:38:39;;;;;;;12.98;4.78;;;;;;;;;;7327381;19;162106;-17
2022/06/28 15:41:10;;;;;;;18.67;6.13;;;;;;;;;;7327183;19;162534;-17